createdAt,value
2022-10-07T00:02:06.975Z,39.33
2022-10-07T00:05:10.594Z,47.90
2022-10-07T00:08:13.998Z,43.53
2022-10-07T00:11:19.412Z,41.75
2022-10-07T00:14:24.154Z,42.03
2022-10-07T00:17:27.531Z,40.50
2022-10-07T00:20:30.802Z,45.97
2022-10-07T00:23:34.241Z,40.10
2022-10-07T00:26:39.007Z,45.55
2022-10-07T00:29:43.624Z,46.90
2022-10-07T00:32:46.912Z,51.58
2022-10-07T00:35:51.501Z,51.35
2022-10-07T00:38:57.164Z,48.53
2022-10-07T00:42:01.308Z,51.42
2022-10-07T00:45:06.721Z,55.22
2022-10-07T00:48:10.214Z,53.67
2022-10-07T00:51:16.535Z,51.03
2022-10-07T00:54:21.528Z,56.13
2022-10-07T00:57:28.603Z,51.17
2022-10-07T01:00:34.481Z,51.13
2022-10-07T01:03:40.092Z,48.60
2022-10-07T01:06:43.429Z,54.45
2022-10-07T01:09:49.151Z,50.45
2022-10-07T01:13:06.126Z,44.72
2022-10-07T01:16:17.814Z,49.33
2022-10-07T01:19:42.039Z,53.28
2022-10-07T01:22:56.435Z,49.80
2022-10-07T01:26:36.641Z,48.58
2022-10-07T01:29:44.319Z,41.95
2022-10-07T01:32:54.011Z,48.55
2022-10-07T01:36:10.658Z,53.10
2022-10-07T01:39:17.109Z,54.70
2022-10-07T01:42:22.579Z,53.42
2022-10-07T01:45:30.167Z,51.15
2022-10-07T01:48:33.385Z,59.67
2022-10-07T01:51:40.166Z,56.67
2022-10-07T01:54:58.813Z,58.70
2022-10-07T01:58:13.510Z,68.30
2022-10-07T02:01:23.855Z,68.35
2022-10-07T02:04:43.404Z,66.93
2022-10-07T02:08:00.133Z,67.18
2022-10-07T02:11:13.222Z,70.50
2022-10-07T02:14:26.612Z,63.28
2022-10-07T02:17:35.250Z,59.85
2022-10-07T02:20:41.567Z,57.55
2022-10-07T02:23:48.256Z,59.25
2022-10-07T02:26:53.357Z,55.05
2022-10-07T02:30:03.189Z,55.47
2022-10-07T02:33:08.894Z,70.80
2022-10-07T02:36:16.737Z,62.75
2022-10-07T02:39:21.480Z,70.00
2022-10-07T02:42:33.684Z,62.70
2022-10-07T02:45:46.026Z,62.30
2022-10-07T02:48:58.809Z,62.88
2022-10-07T02:52:06.588Z,58.72
2022-10-07T02:55:15.975Z,57.45
2022-10-07T02:58:24.234Z,57.07
2022-10-07T03:01:35.387Z,64.93
2022-10-07T03:04:39.152Z,57.47
2022-10-07T03:07:43.564Z,68.53
2022-10-07T03:10:47.073Z,64.80
2022-10-07T03:13:52.066Z,71.47
2022-10-07T03:16:57.708Z,65.22
2022-10-07T03:20:01.871Z,63.03
2022-10-07T03:23:06.545Z,52.40
2022-10-07T03:26:09.790Z,59.53
2022-10-07T03:29:13.883Z,58.60
2022-10-07T03:32:19.380Z,59.60
2022-10-07T03:35:22.758Z,61.50
2022-10-07T03:38:26.382Z,61.25
2022-10-07T03:41:29.626Z,54.25
2022-10-07T03:44:38.327Z,55.10
2022-10-07T03:47:44.237Z,63.45
2022-10-07T03:50:50.357Z,58.80
2022-10-07T03:53:57.327Z,58.13
2022-10-07T03:57:02.544Z,57.60
2022-10-07T04:00:09.708Z,61.22
2022-10-07T04:03:19.468Z,53.22
2022-10-07T04:06:25.009Z,65.38
2022-10-07T04:09:30.331Z,61.17
2022-10-07T04:12:33.683Z,60.95
2022-10-07T04:15:38.853Z,66.30
2022-10-07T04:18:43.630Z,70.60
2022-10-07T04:21:47.123Z,64.25
2022-10-07T04:25:05.258Z,64.43
2022-10-07T04:28:14.691Z,60.78
2022-10-07T04:31:18.046Z,59.60
2022-10-07T04:34:25.641Z,63.47
2022-10-07T04:37:28.937Z,58.63
2022-10-07T04:40:32.488Z,60.85
2022-10-07T04:43:36.038Z,58.35
2022-10-07T04:46:45.505Z,51.47
2022-10-07T04:49:53.761Z,52.47
2022-10-07T04:52:57.285Z,56.20
2022-10-07T04:56:01.094Z,54.72
2022-10-07T04:59:05.100Z,53.45
2022-10-07T05:02:08.718Z,54.95
2022-10-07T05:05:14.382Z,56.22
2022-10-07T05:08:19.231Z,48.03
2022-10-07T05:11:22.939Z,51.40
2022-10-07T05:14:33.772Z,55.65
2022-10-07T05:17:41.108Z,59.67
2022-10-07T05:20:47.587Z,58.47
2022-10-07T05:23:51.353Z,62.70
2022-10-07T05:27:00.579Z,81.07
2022-10-07T05:30:04.824Z,59.83
2022-10-07T05:33:10.772Z,69.78
2022-10-07T05:36:17.378Z,74.43
2022-10-07T05:39:20.737Z,63.13
2022-10-07T05:42:27.695Z,59.45
2022-10-07T05:45:33.063Z,56.08
2022-10-07T05:48:39.573Z,45.40
2022-10-07T05:51:46.102Z,53.80
2022-10-07T05:54:49.692Z,53.53
2022-10-07T05:57:53.276Z,48.90
2022-10-07T06:01:03.720Z,54.03
2022-10-07T06:04:09.143Z,49.05
2022-10-07T06:07:21.371Z,52.97
2022-10-07T06:10:45.912Z,48.40
2022-10-07T06:13:50.154Z,69.78
2022-10-07T06:16:53.759Z,70.45
2022-10-07T06:19:57.350Z,70.70
2022-10-07T06:23:01.917Z,68.32
2022-10-07T06:26:07.310Z,76.70
2022-10-07T06:29:10.832Z,84.78
2022-10-07T06:32:14.657Z,84.50
2022-10-07T06:35:19.287Z,79.03
2022-10-07T06:38:25.693Z,86.65
2022-10-07T06:41:28.981Z,85.95
2022-10-07T06:44:43.118Z,95.93
2022-10-07T06:47:49.561Z,84.28
2022-10-07T06:50:53.209Z,90.00
2022-10-07T06:53:58.919Z,93.43
2022-10-07T06:57:15.429Z,85.47
2022-10-07T07:00:26.621Z,88.20
2022-10-07T07:03:30.839Z,84.22
2022-10-07T07:06:37.313Z,86.78
2022-10-07T07:09:44.173Z,88.50
2022-10-07T07:12:48.852Z,78.75
2022-10-07T07:16:00.035Z,78.10
2022-10-07T07:19:09.516Z,71.20
2022-10-07T07:22:13.550Z,67.03
2022-10-07T07:25:21.601Z,58.08
2022-10-07T07:28:26.377Z,53.03
2022-10-07T07:31:32.154Z,40.22
2022-10-07T07:34:37.225Z,35.10
2022-10-07T07:37:42.182Z,23.45
2022-10-07T07:40:47.649Z,20.33
2022-10-07T07:43:51.815Z,15.25
2022-10-07T07:46:55.248Z,14.10
2022-10-07T07:49:59.769Z,19.48
2022-10-07T07:53:07.894Z,15.73
2022-10-07T07:56:13.428Z,13.20
2022-10-07T07:59:17.156Z,8.70
2022-10-07T08:02:21.631Z,8.05
2022-10-07T08:05:31.059Z,9.65
2022-10-07T08:08:36.341Z,9.10
2022-10-07T08:11:45.202Z,7.15
2022-10-07T08:14:50.862Z,7.47
2022-10-07T08:17:54.282Z,8.23
2022-10-07T08:20:58.799Z,9.63
2022-10-07T08:24:05.134Z,7.88
2022-10-07T08:27:21.344Z,9.10
2022-10-07T08:30:25.180Z,6.82
2022-10-07T08:33:28.884Z,5.93
2022-10-07T08:36:33.819Z,7.05
2022-10-07T08:39:37.099Z,8.15
2022-10-07T08:42:43.936Z,9.02
2022-10-07T08:45:48.549Z,9.18
2022-10-07T08:48:58.254Z,5.60
2022-10-07T08:52:06.600Z,6.45
2022-10-07T08:55:18.744Z,6.32
2022-10-07T08:58:44.160Z,8.18
2022-10-07T09:02:00.029Z,6.05
2022-10-07T09:05:12.461Z,8.15
2022-10-07T09:08:21.750Z,10.20
2022-10-07T09:11:26.729Z,5.80
2022-10-07T09:14:37.283Z,4.75
2022-10-07T09:17:44.614Z,5.75
2022-10-07T09:20:53.329Z,5.60
2022-10-07T09:23:58.540Z,10.30
2022-10-07T09:27:06.110Z,7.20
2022-10-07T09:30:14.625Z,5.00
2022-10-07T09:33:22.007Z,9.00
2022-10-07T09:36:26.165Z,4.40
2022-10-07T09:39:29.382Z,6.72
2022-10-07T09:42:36.589Z,4.50
2022-10-07T09:45:47.879Z,4.45
2022-10-07T09:48:54.001Z,4.85
2022-10-07T09:52:00.752Z,6.15
2022-10-07T09:55:32.482Z,3.65
2022-10-07T09:58:35.768Z,8.90
2022-10-07T10:01:41.853Z,5.25
2022-10-07T10:04:50.377Z,6.03
2022-10-07T10:08:00.260Z,6.70
2022-10-07T10:11:05.553Z,4.88
2022-10-07T10:14:36.025Z,4.60
2022-10-07T10:17:42.082Z,3.22
2022-10-07T10:20:46.383Z,3.20
2022-10-07T10:23:52.556Z,6.85
2022-10-07T10:27:11.237Z,10.63
2022-10-07T10:30:21.325Z,6.28
2022-10-07T10:33:35.052Z,8.30
2022-10-07T10:36:43.462Z,4.93
2022-10-07T10:39:58.212Z,5.40
2022-10-07T10:43:20.243Z,4.97
2022-10-07T10:46:39.510Z,9.07
2022-10-07T10:49:54.308Z,8.10
2022-10-07T10:53:06.163Z,3.92
2022-10-07T10:56:24.504Z,7.60
2022-10-07T10:59:46.574Z,8.25
2022-10-07T11:03:29.036Z,11.05
2022-10-07T11:06:36.135Z,5.53
2022-10-07T11:09:42.983Z,5.93
2022-10-07T11:12:50.849Z,9.52
2022-10-07T11:16:00.753Z,4.00
2022-10-07T11:22:18.839Z,5.22
2022-10-07T11:25:30.657Z,5.97
2022-10-07T11:28:38.341Z,8.30
2022-10-07T11:31:47.067Z,7.53
2022-10-07T11:34:56.218Z,6.45
2022-10-07T11:38:15.521Z,4.40
2022-10-07T11:41:25.937Z,3.58
2022-10-07T11:44:35.743Z,5.25
2022-10-07T11:50:55.200Z,4.38
2022-10-07T11:54:03.007Z,3.38
2022-10-07T11:57:06.982Z,3.85
2022-10-07T12:00:25.206Z,3.65
2022-10-07T12:03:47.528Z,5.70
2022-10-07T12:07:28.308Z,3.95
2022-10-07T12:10:34.507Z,8.65
2022-10-07T12:13:40.587Z,3.40
2022-10-07T12:16:55.913Z,6.90
2022-10-07T12:20:32.275Z,3.00
2022-10-07T12:23:46.635Z,4.90
2022-10-07T12:27:08.107Z,8.13
2022-10-07T12:30:50.923Z,4.32
2022-10-07T12:33:58.049Z,3.28
2022-10-07T12:37:40.145Z,4.57
2022-10-07T12:40:55.789Z,2.45
2022-10-07T12:44:04.635Z,3.20
2022-10-07T12:47:18.306Z,5.57
2022-10-07T12:50:24.048Z,3.28
2022-10-07T12:53:29.199Z,4.88
2022-10-07T12:56:32.976Z,5.13
2022-10-07T12:59:49.392Z,4.13
2022-10-07T13:03:22.044Z,4.80
2022-10-07T13:06:59.121Z,5.30
2022-10-07T13:10:28.919Z,7.47
2022-10-07T13:13:37.633Z,4.05
2022-10-07T13:16:48.924Z,4.10
2022-10-07T13:20:03.019Z,5.05
2022-10-07T13:23:13.019Z,5.32
2022-10-07T13:26:16.582Z,8.57
2022-10-07T13:29:24.800Z,19.17
2022-10-07T13:32:30.316Z,12.10
2022-10-07T13:35:39.656Z,8.15
2022-10-07T13:38:43.669Z,11.13
2022-10-07T13:41:48.952Z,10.18
2022-10-07T13:44:52.637Z,19.50
2022-10-07T13:47:57.770Z,15.48
2022-10-07T13:51:03.639Z,15.85
2022-10-07T13:54:16.588Z,12.90
2022-10-07T13:57:21.399Z,12.60
2022-10-07T14:00:25.680Z,12.13
2022-10-07T14:03:28.926Z,15.20
2022-10-07T14:06:50.402Z,8.30
2022-10-07T14:10:04.834Z,6.55
2022-10-07T14:13:12.172Z,13.57
2022-10-07T14:16:22.308Z,17.98
2022-10-07T14:22:37.055Z,7.95
2022-10-07T14:25:54.074Z,8.82
2022-10-07T14:28:58.048Z,11.80
2022-10-07T14:32:29.490Z,11.23
2022-10-07T14:35:33.979Z,5.85
2022-10-07T14:38:38.638Z,10.00
2022-10-07T14:41:41.867Z,7.32
2022-10-07T14:44:45.694Z,7.32
2022-10-07T14:47:49.610Z,6.53
2022-10-07T14:50:53.515Z,6.15
2022-10-07T14:54:03.017Z,6.82
2022-10-07T14:57:07.011Z,8.70
2022-10-07T15:00:17.592Z,7.68
2022-10-07T15:03:20.960Z,12.68
2022-10-07T15:06:24.558Z,14.00
2022-10-07T15:09:29.526Z,8.75
2022-10-07T15:12:36.010Z,11.25
2022-10-07T15:15:42.063Z,11.90
2022-10-07T15:18:52.342Z,11.95
2022-10-07T15:22:03.790Z,11.02
2022-10-07T15:25:15.203Z,15.63
2022-10-07T15:28:20.009Z,22.27
2022-10-07T15:31:33.506Z,17.08
2022-10-07T15:34:38.246Z,13.13
2022-10-07T15:37:45.829Z,13.73
2022-10-07T15:40:55.877Z,10.73
2022-10-07T15:43:59.977Z,11.82
2022-10-07T15:47:03.527Z,14.18
2022-10-07T15:50:08.082Z,14.88
2022-10-07T15:53:14.927Z,19.35
2022-10-07T15:56:19.969Z,13.88
2022-10-07T15:59:23.249Z,15.02
2022-10-07T16:02:30.288Z,15.35
2022-10-07T16:05:34.790Z,12.95
2022-10-07T16:08:38.426Z,17.92
2022-10-07T16:11:45.810Z,12.93
2022-10-07T16:14:50.415Z,15.80
2022-10-07T16:17:54.094Z,18.15
2022-10-07T16:20:57.495Z,17.98
2022-10-07T16:24:04.040Z,15.88
2022-10-07T16:27:09.143Z,18.67
2022-10-07T16:30:31.055Z,24.75
2022-10-07T16:33:34.611Z,21.58
2022-10-07T16:36:43.359Z,19.48
2022-10-07T16:42:55.793Z,22.15
2022-10-07T16:46:03.305Z,23.50
2022-10-07T16:49:09.859Z,37.97
2022-10-07T16:52:14.065Z,43.75
2022-10-07T16:55:18.149Z,38.30
2022-10-07T16:58:23.740Z,47.60
2022-10-07T17:01:28.460Z,43.45
2022-10-07T17:04:31.935Z,48.95
2022-10-07T17:07:35.204Z,49.00
2022-10-07T17:10:42.199Z,48.17
2022-10-07T17:13:47.342Z,54.05
2022-10-07T17:16:52.511Z,47.15
2022-10-07T17:19:56.096Z,42.78
2022-10-07T17:22:59.498Z,38.05
2022-10-07T17:26:07.681Z,44.40
2022-10-07T17:29:16.499Z,38.80
2022-10-07T17:32:19.824Z,39.08
2022-10-07T17:35:23.243Z,35.00
2022-10-07T17:38:35.224Z,39.08
2022-10-07T17:41:39.642Z,42.90
2022-10-07T17:44:44.815Z,41.33
2022-10-07T17:47:48.836Z,38.17
2022-10-07T17:50:52.594Z,39.88
2022-10-07T17:53:57.646Z,42.42
2022-10-07T17:57:00.991Z,47.30
2022-10-07T18:00:06.817Z,38.90
2022-10-07T18:03:16.544Z,38.50
2022-10-07T18:06:20.571Z,39.13
2022-10-07T18:09:25.113Z,43.33
2022-10-07T18:12:46.763Z,48.00
2022-10-07T18:16:00.764Z,40.67
2022-10-07T18:19:06.685Z,43.63
2022-10-07T18:22:10.396Z,44.75
2022-10-07T18:25:16.174Z,44.30
2022-10-07T18:28:23.194Z,46.65
2022-10-07T18:31:52.700Z,46.15
2022-10-07T18:34:57.753Z,47.15
2022-10-07T18:38:07.105Z,45.50
2022-10-07T18:41:25.429Z,36.08
2022-10-07T18:44:32.075Z,55.22
2022-10-07T18:47:40.626Z,50.88
2022-10-07T18:50:53.516Z,52.15
2022-10-07T18:53:59.771Z,48.42
2022-10-07T18:57:18.425Z,52.55
2022-10-07T19:00:27.967Z,52.20
2022-10-07T19:03:41.367Z,56.60
2022-10-07T19:06:58.430Z,48.70
2022-10-07T19:10:07.783Z,50.60
2022-10-07T19:13:43.870Z,50.50
2022-10-07T19:16:49.381Z,56.25
2022-10-07T19:20:03.465Z,52.72
2022-10-07T19:23:11.154Z,57.65
2022-10-07T19:26:25.044Z,64.18
2022-10-07T19:29:29.540Z,68.15
2022-10-07T19:32:33.587Z,72.22
2022-10-07T19:35:48.663Z,137.10
2022-10-07T19:39:10.223Z,122.53
2022-10-07T19:42:14.274Z,80.40
2022-10-07T19:52:23.293Z,73.85
2022-10-07T19:55:32.086Z,81.80
2022-10-07T19:58:38.047Z,83.70
2022-10-07T20:02:00.963Z,79.63
2022-10-07T20:08:32.972Z,88.10
2022-10-07T20:11:37.026Z,81.65
2022-10-07T20:14:45.593Z,76.15
2022-10-07T20:17:54.088Z,76.15
2022-10-07T20:21:07.465Z,78.80
2022-10-07T20:24:22.077Z,76.15
2022-10-07T20:27:28.038Z,74.88
2022-10-07T20:30:43.940Z,69.20
2022-10-07T20:33:48.679Z,70.18
2022-10-07T20:36:56.707Z,69.72
2022-10-07T20:40:36.892Z,60.88
2022-10-07T20:43:43.189Z,69.55
2022-10-07T20:47:05.891Z,58.70
2022-10-07T20:50:14.683Z,60.15
2022-10-07T20:53:19.933Z,53.20
2022-10-07T20:56:24.932Z,54.85
2022-10-07T20:59:32.459Z,53.50
2022-10-07T21:02:36.025Z,51.60
2022-10-07T21:05:54.890Z,50.55
2022-10-07T21:09:07.252Z,53.50
2022-10-07T21:12:24.679Z,51.25
2022-10-07T21:15:50.910Z,48.03
2022-10-07T21:18:55.395Z,49.60
2022-10-07T21:21:58.853Z,47.80
2022-10-07T21:25:03.905Z,50.63
2022-10-07T21:31:57.072Z,51.30
2022-10-07T21:35:03.219Z,51.47
2022-10-07T21:38:14.420Z,55.63
2022-10-07T21:41:26.861Z,56.25
2022-10-07T21:48:09.261Z,52.55
2022-10-07T21:51:20.742Z,53.80
2022-10-07T21:54:39.027Z,60.47
2022-10-07T21:57:48.219Z,56.60
2022-10-07T22:00:56.694Z,57.22
2022-10-07T22:04:02.467Z,39.78
2022-10-07T22:07:22.941Z,52.60
2022-10-07T22:13:29.635Z,54.30
2022-10-07T22:16:36.881Z,48.50
2022-10-07T22:19:40.219Z,51.17
2022-10-07T22:22:43.788Z,51.50
2022-10-07T22:26:13.628Z,52.50
2022-10-07T22:29:25.879Z,50.08
2022-10-07T22:32:45.346Z,52.53
2022-10-07T22:35:50.171Z,53.75
2022-10-07T22:38:59.578Z,50.13
2022-10-07T22:45:23.951Z,56.08
2022-10-07T22:48:31.378Z,58.65
2022-10-07T22:51:51.231Z,65.53
2022-10-07T22:58:03.329Z,62.25
2022-10-07T23:01:36.533Z,61.38
2022-10-07T23:04:52.192Z,59.83
2022-10-07T23:11:17.177Z,59.53
2022-10-07T23:14:28.025Z,65.90
2022-10-07T23:17:32.664Z,56.90
2022-10-07T23:20:37.458Z,58.83
2022-10-07T23:31:10.959Z,60.83
2022-10-07T23:34:19.310Z,57.85
2022-10-07T23:37:33.785Z,56.30
2022-10-07T23:40:39.635Z,58.58
2022-10-07T23:43:58.149Z,58.78
2022-10-07T23:47:08.281Z,59.22
2022-10-07T23:50:13.036Z,66.70
2022-10-07T23:53:17.925Z,56.05
2022-10-07T23:56:21.251Z,61.63
2022-10-07T23:59:25.099Z,64.55
